sensor_id;sensor_type;location;lat;lon;timestamp;P1;durP1;ratioP1;P2;durP2;ratioP2
43509;SDS011;29105;57.764;40.952;2023-04-10T00:37:54;14.15;;;6.50;;
43509;SDS011;29105;57.764;40.952;2023-04-10T00:40:21;12.10;;;5.60;;
43509;SDS011;29105;57.764;40.952;2023-04-10T00:42:47;13.45;;;5.28;;
43509;SDS011;29105;57.764;40.952;2023-04-10T00:45:13;23.85;;;8.32;;
43509;SDS011;29105;57.764;40.952;2023-04-10T00:47:38;16.88;;;7.63;;
43509;SDS011;29105;57.764;40.952;2023-04-10T00:50:05;24.17;;;11.63;;
43509;SDS011;29105;57.764;40.952;2023-04-10T00:52:31;31.67;;;19.77;;
43509;SDS011;29105;57.764;40.952;2023-04-10T00:54:56;31.33;;;15.32;;
43509;SDS011;29105;57.764;40.952;2023-04-10T00:57:23;26.30;;;9.23;;
43509;SDS011;29105;57.764;40.952;2023-04-10T00:59:48;20.25;;;8.02;;
43509;SDS011;29105;57.764;40.952;2023-04-10T01:02:16;22.30;;;10.10;;
43509;SDS011;29105;57.764;40.952;2023-04-10T01:04:42;22.58;;;9.45;;
43509;SDS011;29105;57.764;40.952;2023-04-10T01:09:58;23.42;;;10.15;;
43509;SDS011;29105;57.764;40.952;2023-04-10T01:15:45;36.92;;;13.98;;
43509;SDS011;29105;57.764;40.952;2023-04-10T01:18:33;39.45;;;14.25;;
43509;SDS011;29105;57.764;40.952;2023-04-10T01:21:24;42.08;;;15.15;;
43509;SDS011;29105;57.764;40.952;2023-04-10T01:29:35;25.00;;;9.77;;
43509;SDS011;29105;57.764;40.952;2023-04-10T01:32:07;27.30;;;13.27;;
43509;SDS011;29105;57.764;40.952;2023-04-10T01:34:38;35.95;;;14.25;;
43509;SDS011;29105;57.764;40.952;2023-04-10T01:37:15;30.17;;;13.07;;
43509;SDS011;29105;57.764;40.952;2023-04-10T01:39:44;34.53;;;14.55;;
43509;SDS011;29105;57.764;40.952;2023-04-10T01:42:14;33.97;;;14.27;;
43509;SDS011;29105;57.764;40.952;2023-04-10T01:44:41;30.60;;;12.45;;
43509;SDS011;29105;57.764;40.952;2023-04-10T01:47:08;42.90;;;14.30;;
43509;SDS011;29105;57.764;40.952;2023-04-10T01:49:34;35.22;;;14.30;;
43509;SDS011;29105;57.764;40.952;2023-04-10T01:52:01;33.80;;;13.50;;
43509;SDS011;29105;57.764;40.952;2023-04-10T01:54:27;40.90;;;13.90;;
43509;SDS011;29105;57.764;40.952;2023-04-10T01:56:56;24.25;;;11.18;;
43509;SDS011;29105;57.764;40.952;2023-04-10T01:59:23;34.53;;;12.00;;
43509;SDS011;29105;57.764;40.952;2023-04-10T02:01:54;45.35;;;13.93;;
43509;SDS011;29105;57.764;40.952;2023-04-10T02:04:21;33.10;;;12.45;;
43509;SDS011;29105;57.764;40.952;2023-04-10T02:06:50;26.83;;;10.27;;
43509;SDS011;29105;57.764;40.952;2023-04-10T02:09:49;35.13;;;11.60;;
43509;SDS011;29105;57.764;40.952;2023-04-10T02:12:22;29.17;;;11.32;;
43509;SDS011;29105;57.764;40.952;2023-04-10T02:14:52;30.30;;;10.63;;
43509;SDS011;29105;57.764;40.952;2023-04-10T02:17:22;42.78;;;11.70;;
43509;SDS011;29105;57.764;40.952;2023-04-10T02:19:54;29.35;;;9.68;;
43509;SDS011;29105;57.764;40.952;2023-04-10T02:22:20;34.80;;;9.20;;
43509;SDS011;29105;57.764;40.952;2023-04-10T02:24:47;28.25;;;9.48;;
43509;SDS011;29105;57.764;40.952;2023-04-10T02:27:13;21.80;;;7.47;;
43509;SDS011;29105;57.764;40.952;2023-04-10T02:29:39;19.48;;;6.75;;
43509;SDS011;29105;57.764;40.952;2023-04-10T02:32:05;18.95;;;6.85;;
43509;SDS011;29105;57.764;40.952;2023-04-10T02:34:30;21.35;;;7.32;;
43509;SDS011;29105;57.764;40.952;2023-04-10T02:36:56;30.70;;;8.10;;
43509;SDS011;29105;57.764;40.952;2023-04-10T02:39:21;27.15;;;10.20;;
43509;SDS011;29105;57.764;40.952;2023-04-10T02:41:47;49.53;;;13.50;;
43509;SDS011;29105;57.764;40.952;2023-04-10T02:44:13;44.13;;;9.90;;
43509;SDS011;29105;57.764;40.952;2023-04-10T02:46:38;27.48;;;8.02;;
43509;SDS011;29105;57.764;40.952;2023-04-10T02:49:06;31.10;;;7.80;;
43509;SDS011;29105;57.764;40.952;2023-04-10T02:51:34;22.48;;;7.15;;
43509;SDS011;29105;57.764;40.952;2023-04-10T02:54:00;40.58;;;6.63;;
43509;SDS011;29105;57.764;40.952;2023-04-10T02:56:26;14.27;;;4.63;;
43509;SDS011;29105;57.764;40.952;2023-04-10T02:58:51;16.60;;;5.10;;
43509;SDS011;29105;57.764;40.952;2023-04-10T03:01:17;23.13;;;4.47;;
43509;SDS011;29105;57.764;40.952;2023-04-10T03:03:44;9.77;;;3.00;;
43509;SDS011;29105;57.764;40.952;2023-04-10T03:06:09;18.85;;;6.05;;
43509;SDS011;29105;57.764;40.952;2023-04-10T03:08:35;23.13;;;7.50;;
43509;SDS011;29105;57.764;40.952;2023-04-10T03:11:01;20.75;;;8.45;;
43509;SDS011;29105;57.764;40.952;2023-04-10T03:13:26;25.77;;;6.13;;
43509;SDS011;29105;57.764;40.952;2023-04-10T03:15:52;19.27;;;6.68;;
43509;SDS011;29105;57.764;40.952;2023-04-10T03:18:17;15.43;;;4.82;;
43509;SDS011;29105;57.764;40.952;2023-04-10T03:20:43;13.32;;;4.93;;
43509;SDS011;29105;57.764;40.952;2023-04-10T03:23:09;16.42;;;4.65;;
43509;SDS011;29105;57.764;40.952;2023-04-10T03:25:35;8.40;;;3.85;;
43509;SDS011;29105;57.764;40.952;2023-04-10T03:28:01;9.95;;;4.43;;
43509;SDS011;29105;57.764;40.952;2023-04-10T03:30:27;9.15;;;4.45;;
43509;SDS011;29105;57.764;40.952;2023-04-10T03:32:52;13.38;;;5.43;;
43509;SDS011;29105;57.764;40.952;2023-04-10T03:35:18;13.40;;;5.30;;
43509;SDS011;29105;57.764;40.952;2023-04-10T03:37:43;21.52;;;6.40;;
43509;SDS011;29105;57.764;40.952;2023-04-10T03:40:09;18.92;;;5.93;;
43509;SDS011;29105;57.764;40.952;2023-04-10T03:42:36;18.17;;;5.68;;
43509;SDS011;29105;57.764;40.952;2023-04-10T03:45:02;17.10;;;6.10;;
43509;SDS011;29105;57.764;40.952;2023-04-10T03:47:29;21.17;;;6.70;;
43509;SDS011;29105;57.764;40.952;2023-04-10T03:49:56;16.50;;;6.88;;
43509;SDS011;29105;57.764;40.952;2023-04-10T03:52:22;41.13;;;9.10;;
43509;SDS011;29105;57.764;40.952;2023-04-10T03:54:48;36.55;;;7.97;;
43509;SDS011;29105;57.764;40.952;2023-04-10T03:57:13;28.00;;;8.05;;
43509;SDS011;29105;57.764;40.952;2023-04-10T03:59:39;40.33;;;8.45;;
43509;SDS011;29105;57.764;40.952;2023-04-10T04:02:05;62.58;;;11.85;;
43509;SDS011;29105;57.764;40.952;2023-04-10T04:04:31;105.97;;;17.20;;
43509;SDS011;29105;57.764;40.952;2023-04-10T04:06:56;85.13;;;14.15;;
43509;SDS011;29105;57.764;40.952;2023-04-10T04:09:22;65.68;;;11.95;;
43509;SDS011;29105;57.764;40.952;2023-04-10T04:11:47;48.75;;;12.63;;
43509;SDS011;29105;57.764;40.952;2023-04-10T04:14:13;44.22;;;14.07;;
43509;SDS011;29105;57.764;40.952;2023-04-10T04:16:38;48.17;;;13.63;;
43509;SDS011;29105;57.764;40.952;2023-04-10T04:19:04;45.90;;;11.40;;
43509;SDS011;29105;57.764;40.952;2023-04-10T04:21:29;33.78;;;9.18;;
43509;SDS011;29105;57.764;40.952;2023-04-10T04:23:55;32.92;;;8.40;;
43509;SDS011;29105;57.764;40.952;2023-04-10T04:26:21;32.53;;;8.73;;
43509;SDS011;29105;57.764;40.952;2023-04-10T04:28:47;45.72;;;9.90;;
43509;SDS011;29105;57.764;40.952;2023-04-10T04:31:12;52.63;;;10.07;;
43509;SDS011;29105;57.764;40.952;2023-04-10T04:33:38;37.83;;;10.70;;
43509;SDS011;29105;57.764;40.952;2023-04-10T04:36:03;73.10;;;12.23;;
43509;SDS011;29105;57.764;40.952;2023-04-10T04:38:29;45.83;;;11.35;;
43509;SDS011;29105;57.764;40.952;2023-04-10T04:40:55;76.72;;;12.90;;
43509;SDS011;29105;57.764;40.952;2023-04-10T04:43:20;56.65;;;12.30;;
43509;SDS011;29105;57.764;40.952;2023-04-10T04:45:46;40.00;;;12.88;;
43509;SDS011;29105;57.764;40.952;2023-04-10T04:48:12;51.58;;;11.55;;
43509;SDS011;29105;57.764;40.952;2023-04-10T04:50:39;40.72;;;10.25;;
43509;SDS011;29105;57.764;40.952;2023-04-10T04:53:05;35.80;;;9.90;;
43509;SDS011;29105;57.764;40.952;2023-04-10T04:55:31;56.83;;;11.25;;
43509;SDS011;29105;57.764;40.952;2023-04-10T04:57:57;40.92;;;10.75;;
43509;SDS011;29105;57.764;40.952;2023-04-10T05:00:22;50.83;;;10.68;;
43509;SDS011;29105;57.764;40.952;2023-04-10T05:02:48;43.15;;;9.88;;
43509;SDS011;29105;57.764;40.952;2023-04-10T05:05:13;50.60;;;9.35;;
43509;SDS011;29105;57.764;40.952;2023-04-10T05:07:39;58.45;;;10.98;;
43509;SDS011;29105;57.764;40.952;2023-04-10T05:10:05;64.93;;;10.10;;
43509;SDS011;29105;57.764;40.952;2023-04-10T05:12:32;35.10;;;9.02;;
43509;SDS011;29105;57.764;40.952;2023-04-10T05:14:58;46.63;;;7.80;;
43509;SDS011;29105;57.764;40.952;2023-04-10T05:17:23;38.92;;;8.57;;
43509;SDS011;29105;57.764;40.952;2023-04-10T05:19:49;42.95;;;8.27;;
43509;SDS011;29105;57.764;40.952;2023-04-10T05:22:15;36.42;;;7.07;;
43509;SDS011;29105;57.764;40.952;2023-04-10T05:24:40;37.97;;;8.05;;
43509;SDS011;29105;57.764;40.952;2023-04-10T05:27:06;28.52;;;7.32;;
43509;SDS011;29105;57.764;40.952;2023-04-10T05:29:31;24.38;;;7.07;;
43509;SDS011;29105;57.764;40.952;2023-04-10T05:31:57;27.90;;;7.82;;
43509;SDS011;29105;57.764;40.952;2023-04-10T05:34:22;34.13;;;7.63;;
43509;SDS011;29105;57.764;40.952;2023-04-10T05:36:48;27.27;;;7.03;;
43509;SDS011;29105;57.764;40.952;2023-04-10T05:39:13;38.10;;;7.60;;
43509;SDS011;29105;57.764;40.952;2023-04-10T05:41:39;34.33;;;6.55;;
43509;SDS011;29105;57.764;40.952;2023-04-10T05:44:07;35.80;;;7.90;;
43509;SDS011;29105;57.764;40.952;2023-04-10T05:46:32;31.27;;;7.13;;
43509;SDS011;29105;57.764;40.952;2023-04-10T05:48:58;32.22;;;6.65;;
43509;SDS011;29105;57.764;40.952;2023-04-10T05:51:24;39.78;;;8.48;;
43509;SDS011;29105;57.764;40.952;2023-04-10T05:53:50;37.00;;;8.43;;
43509;SDS011;29105;57.764;40.952;2023-04-10T05:56:16;44.00;;;6.80;;
43509;SDS011;29105;57.764;40.952;2023-04-10T05:58:41;37.25;;;6.38;;
43509;SDS011;29105;57.764;40.952;2023-04-10T06:01:07;27.02;;;5.97;;
43509;SDS011;29105;57.764;40.952;2023-04-10T06:03:33;30.45;;;5.93;;
43509;SDS011;29105;57.764;40.952;2023-04-10T06:06:01;47.80;;;8.18;;
43509;SDS011;29105;57.764;40.952;2023-04-10T06:08:28;42.10;;;7.60;;
43509;SDS011;29105;57.764;40.952;2023-04-10T06:10:53;38.97;;;5.90;;
43509;SDS011;29105;57.764;40.952;2023-04-10T06:13:19;50.15;;;9.02;;
43509;SDS011;29105;57.764;40.952;2023-04-10T06:15:45;45.42;;;8.10;;
43509;SDS011;29105;57.764;40.952;2023-04-10T06:18:10;22.98;;;5.85;;
43509;SDS011;29105;57.764;40.952;2023-04-10T06:20:36;26.85;;;4.70;;
43509;SDS011;29105;57.764;40.952;2023-04-10T06:23:01;21.45;;;4.35;;
43509;SDS011;29105;57.764;40.952;2023-04-10T06:25:27;33.83;;;5.07;;
43509;SDS011;29105;57.764;40.952;2023-04-10T06:27:53;19.23;;;4.38;;
43509;SDS011;29105;57.764;40.952;2023-04-10T06:30:18;19.02;;;3.95;;
43509;SDS011;29105;57.764;40.952;2023-04-10T06:32:44;19.10;;;3.25;;
43509;SDS011;29105;57.764;40.952;2023-04-10T06:35:10;24.00;;;3.10;;
43509;SDS011;29105;57.764;40.952;2023-04-10T06:37:36;11.02;;;2.53;;
43509;SDS011;29105;57.764;40.952;2023-04-10T06:40:05;16.83;;;2.22;;
43509;SDS011;29105;57.764;40.952;2023-04-10T06:42:35;22.95;;;1.92;;
43509;SDS011;29105;57.764;40.952;2023-04-10T06:45:01;20.40;;;3.00;;
43509;SDS011;29105;57.764;40.952;2023-04-10T06:47:29;15.80;;;2.35;;
43509;SDS011;29105;57.764;40.952;2023-04-10T06:49:55;9.90;;;2.53;;
43509;SDS011;29105;57.764;40.952;2023-04-10T06:52:21;32.53;;;4.85;;
43509;SDS011;29105;57.764;40.952;2023-04-10T06:54:46;11.73;;;1.80;;
43509;SDS011;29105;57.764;40.952;2023-04-10T06:57:12;10.32;;;2.00;;
43509;SDS011;29105;57.764;40.952;2023-04-10T06:59:37;23.98;;;3.17;;
43509;SDS011;29105;57.764;40.952;2023-04-10T07:02:03;16.00;;;1.48;;
43509;SDS011;29105;57.764;40.952;2023-04-10T07:04:30;26.35;;;3.08;;
43509;SDS011;29105;57.764;40.952;2023-04-10T07:06:56;79.82;;;7.05;;
43509;SDS011;29105;57.764;40.952;2023-04-10T07:09:24;13.52;;;1.83;;
43509;SDS011;29105;57.764;40.952;2023-04-10T07:11:50;8.35;;;1.48;;
43509;SDS011;29105;57.764;40.952;2023-04-10T07:14:16;7.45;;;1.38;;
43509;SDS011;29105;57.764;40.952;2023-04-10T07:16:42;15.23;;;1.95;;
43509;SDS011;29105;57.764;40.952;2023-04-10T07:19:07;12.68;;;2.17;;
43509;SDS011;29105;57.764;40.952;2023-04-10T07:21:33;12.25;;;2.03;;
43509;SDS011;29105;57.764;40.952;2023-04-10T07:23:58;11.98;;;1.08;;
43509;SDS011;29105;57.764;40.952;2023-04-10T07:26:24;16.85;;;2.17;;
43509;SDS011;29105;57.764;40.952;2023-04-10T07:28:50;9.05;;;1.38;;
43509;SDS011;29105;57.764;40.952;2023-04-10T07:31:15;10.90;;;1.30;;
43509;SDS011;29105;57.764;40.952;2023-04-10T07:33:43;22.25;;;2.67;;
43509;SDS011;29105;57.764;40.952;2023-04-10T07:36:09;7.40;;;1.30;;
43509;SDS011;29105;57.764;40.952;2023-04-10T07:38:35;4.22;;;0.80;;
43509;SDS011;29105;57.764;40.952;2023-04-10T07:41:01;3.47;;;1.13;;
43509;SDS011;29105;57.764;40.952;2023-04-10T07:43:27;12.15;;;1.30;;
43509;SDS011;29105;57.764;40.952;2023-04-10T07:45:53;27.15;;;3.33;;
43509;SDS011;29105;57.764;40.952;2023-04-10T07:48:18;14.18;;;1.40;;
43509;SDS011;29105;57.764;40.952;2023-04-10T07:50:44;9.15;;;1.08;;
43509;SDS011;29105;57.764;40.952;2023-04-10T07:53:09;7.28;;;1.23;;
43509;SDS011;29105;57.764;40.952;2023-04-10T07:55:38;24.65;;;2.45;;
43509;SDS011;29105;57.764;40.952;2023-04-10T07:58:05;32.63;;;4.82;;
43509;SDS011;29105;57.764;40.952;2023-04-10T08:00:31;19.40;;;2.60;;
43509;SDS011;29105;57.764;40.952;2023-04-10T08:02:57;3.88;;;1.08;;
43509;SDS011;29105;57.764;40.952;2023-04-10T08:05:23;7.45;;;1.00;;
43509;SDS011;29105;57.764;40.952;2023-04-10T08:07:48;12.10;;;1.60;;
43509;SDS011;29105;57.764;40.952;2023-04-10T08:10:14;18.85;;;1.92;;
43509;SDS011;29105;57.764;40.952;2023-04-10T08:12:40;23.63;;;2.58;;
43509;SDS011;29105;57.764;40.952;2023-04-10T08:15:05;26.60;;;2.63;;
43509;SDS011;29105;57.764;40.952;2023-04-10T08:17:31;18.35;;;2.78;;
43509;SDS011;29105;57.764;40.952;2023-04-10T08:19:57;31.90;;;3.72;;
43509;SDS011;29105;57.764;40.952;2023-04-10T08:22:22;16.80;;;3.10;;
43509;SDS011;29105;57.764;40.952;2023-04-10T08:24:48;5.60;;;0.90;;
43509;SDS011;29105;57.764;40.952;2023-04-10T08:27:13;38.60;;;4.32;;
43509;SDS011;29105;57.764;40.952;2023-04-10T08:29:40;11.20;;;1.00;;
43509;SDS011;29105;57.764;40.952;2023-04-10T08:32:06;32.92;;;4.53;;
43509;SDS011;29105;57.764;40.952;2023-04-10T08:34:32;14.13;;;0.95;;
43509;SDS011;29105;57.764;40.952;2023-04-10T08:36:57;15.48;;;2.20;;
43509;SDS011;29105;57.764;40.952;2023-04-10T08:39:23;17.05;;;1.13;;
43509;SDS011;29105;57.764;40.952;2023-04-10T08:41:49;13.02;;;1.80;;
43509;SDS011;29105;57.764;40.952;2023-04-10T08:44:14;23.40;;;3.15;;
43509;SDS011;29105;57.764;40.952;2023-04-10T08:46:41;18.00;;;2.20;;
43509;SDS011;29105;57.764;40.952;2023-04-10T08:49:30;8.05;;;0.65;;
43509;SDS011;29105;57.764;40.952;2023-04-10T08:51:55;13.38;;;1.13;;
43509;SDS011;29105;57.764;40.952;2023-04-10T08:54:26;10.82;;;1.63;;
43509;SDS011;29105;57.764;40.952;2023-04-10T08:56:53;6.85;;;0.65;;
43509;SDS011;29105;57.764;40.952;2023-04-10T08:59:20;3.33;;;0.40;;
43509;SDS011;29105;57.764;40.952;2023-04-10T09:01:45;6.40;;;0.80;;
43509;SDS011;29105;57.764;40.952;2023-04-10T09:04:11;2.05;;;0.40;;
43509;SDS011;29105;57.764;40.952;2023-04-10T09:06:37;4.00;;;0.95;;
43509;SDS011;29105;57.764;40.952;2023-04-10T09:09:06;16.52;;;1.50;;
43509;SDS011;29105;57.764;40.952;2023-04-10T09:14:33;9.27;;;1.13;;
43509;SDS011;29105;57.764;40.952;2023-04-10T09:17:15;2.83;;;0.73;;
43509;SDS011;29105;57.764;40.952;2023-04-10T09:19:42;8.32;;;0.82;;
43509;SDS011;29105;57.764;40.952;2023-04-10T09:22:08;3.47;;;0.47;;
43509;SDS011;29105;57.764;40.952;2023-04-10T09:24:35;15.70;;;1.73;;
43509;SDS011;29105;57.764;40.952;2023-04-10T09:27:03;7.63;;;0.80;;
43509;SDS011;29105;57.764;40.952;2023-04-10T09:29:45;13.52;;;2.17;;
43509;SDS011;29105;57.764;40.952;2023-04-10T09:35:12;9.75;;;1.33;;
43509;SDS011;29105;57.764;40.952;2023-04-10T09:37:39;18.60;;;1.15;;
43509;SDS011;29105;57.764;40.952;2023-04-10T09:40:18;11.70;;;2.00;;
43509;SDS011;29105;57.764;40.952;2023-04-10T09:42:45;22.50;;;1.77;;
43509;SDS011;29105;57.764;40.952;2023-04-10T09:45:11;3.25;;;0.30;;
43509;SDS011;29105;57.764;40.952;2023-04-10T09:47:36;3.72;;;0.40;;
43509;SDS011;29105;57.764;40.952;2023-04-10T09:50:03;7.68;;;1.50;;
43509;SDS011;29105;57.764;40.952;2023-04-10T09:52:33;10.50;;;1.13;;
43509;SDS011;29105;57.764;40.952;2023-04-10T09:55:00;15.43;;;1.87;;
43509;SDS011;29105;57.764;40.952;2023-04-10T09:57:30;3.80;;;0.45;;
43509;SDS011;29105;57.764;40.952;2023-04-10T10:00:00;49.03;;;4.80;;
43509;SDS011;29105;57.764;40.952;2023-04-10T10:02:29;5.80;;;0.47;;
43509;SDS011;29105;57.764;40.952;2023-04-10T10:04:57;14.68;;;1.63;;
43509;SDS011;29105;57.764;40.952;2023-04-10T10:07:26;24.02;;;2.75;;
43509;SDS011;29105;57.764;40.952;2023-04-10T10:09:52;3.08;;;0.73;;
43509;SDS011;29105;57.764;40.952;2023-04-10T10:12:21;4.05;;;1.30;;
43509;SDS011;29105;57.764;40.952;2023-04-10T10:15:12;12.52;;;1.40;;
43509;SDS011;29105;57.764;40.952;2023-04-10T10:17:44;8.55;;;0.88;;
43509;SDS011;29105;57.764;40.952;2023-04-10T10:20:14;8.70;;;0.85;;
43509;SDS011;29105;57.764;40.952;2023-04-10T10:22:42;5.93;;;0.63;;
43509;SDS011;29105;57.764;40.952;2023-04-10T10:25:08;1.48;;;0.20;;
43509;SDS011;29105;57.764;40.952;2023-04-10T10:27:35;12.07;;;1.63;;
43509;SDS011;29105;57.764;40.952;2023-04-10T10:30:01;20.25;;;2.47;;
43509;SDS011;29105;57.764;40.952;2023-04-10T10:32:28;1.77;;;0.35;;
43509;SDS011;29105;57.764;40.952;2023-04-10T10:34:54;16.33;;;1.48;;
43509;SDS011;29105;57.764;40.952;2023-04-10T10:37:20;2.80;;;0.20;;
43509;SDS011;29105;57.764;40.952;2023-04-10T10:42:21;2.47;;;0.60;;
43509;SDS011;29105;57.764;40.952;2023-04-10T10:44:54;8.23;;;1.00;;
43509;SDS011;29105;57.764;40.952;2023-04-10T10:47:31;37.88;;;3.83;;
43509;SDS011;29105;57.764;40.952;2023-04-10T10:49:59;11.80;;;0.70;;
43509;SDS011;29105;57.764;40.952;2023-04-10T10:52:38;7.20;;;0.68;;
43509;SDS011;29105;57.764;40.952;2023-04-10T10:57:48;5.68;;;0.95;;
43509;SDS011;29105;57.764;40.952;2023-04-10T11:00:19;18.73;;;1.20;;
43509;SDS011;29105;57.764;40.952;2023-04-10T11:13:27;17.67;;;1.27;;
43509;SDS011;29105;57.764;40.952;2023-04-10T11:15:53;6.63;;;1.00;;
43509;SDS011;29105;57.764;40.952;2023-04-10T11:21:21;16.42;;;1.70;;
43509;SDS011;29105;57.764;40.952;2023-04-10T11:24:00;10.75;;;0.90;;
43509;SDS011;29105;57.764;40.952;2023-04-10T11:31:33;7.00;;;0.93;;
43509;SDS011;29105;57.764;40.952;2023-04-10T11:34:00;5.15;;;0.90;;
43509;SDS011;29105;57.764;40.952;2023-04-10T11:36:26;32.63;;;2.30;;
43509;SDS011;29105;57.764;40.952;2023-04-10T11:38:53;15.82;;;0.90;;
43509;SDS011;29105;57.764;40.952;2023-04-10T11:41:29;17.33;;;1.60;;
43509;SDS011;29105;57.764;40.952;2023-04-10T11:43:59;7.88;;;1.67;;
43509;SDS011;29105;57.764;40.952;2023-04-10T11:46:26;30.13;;;2.53;;
43509;SDS011;29105;57.764;40.952;2023-04-10T11:48:54;5.47;;;0.68;;
43509;SDS011;29105;57.764;40.952;2023-04-10T11:51:43;12.20;;;1.80;;
43509;SDS011;29105;57.764;40.952;2023-04-10T11:54:18;22.95;;;1.80;;
43509;SDS011;29105;57.764;40.952;2023-04-10T11:59:35;18.63;;;2.05;;
43509;SDS011;29105;57.764;40.952;2023-04-10T12:02:05;7.75;;;0.63;;
43509;SDS011;29105;57.764;40.952;2023-04-10T12:04:33;16.23;;;2.05;;
43509;SDS011;29105;57.764;40.952;2023-04-10T12:06:58;11.68;;;1.33;;
43509;SDS011;29105;57.764;40.952;2023-04-10T12:09:24;7.90;;;0.68;;
43509;SDS011;29105;57.764;40.952;2023-04-10T12:11:53;10.82;;;0.90;;
43509;SDS011;29105;57.764;40.952;2023-04-10T12:17:00;21.20;;;1.08;;
43509;SDS011;29105;57.764;40.952;2023-04-10T12:19:27;15.23;;;1.30;;
43509;SDS011;29105;57.764;40.952;2023-04-10T12:21:54;26.77;;;1.77;;
43509;SDS011;29105;57.764;40.952;2023-04-10T12:27:15;12.90;;;1.13;;
43509;SDS011;29105;57.764;40.952;2023-04-10T12:29:48;24.23;;;1.40;;
43509;SDS011;29105;57.764;40.952;2023-04-10T12:32:15;10.32;;;0.95;;
43509;SDS011;29105;57.764;40.952;2023-04-10T12:34:41;22.65;;;2.53;;
43509;SDS011;29105;57.764;40.952;2023-04-10T12:37:13;4.47;;;0.52;;
43509;SDS011;29105;57.764;40.952;2023-04-10T12:39:40;8.30;;;1.73;;
43509;SDS011;29105;57.764;40.952;2023-04-10T12:42:15;13.73;;;1.60;;
43509;SDS011;29105;57.764;40.952;2023-04-10T12:44:58;23.10;;;1.35;;
43509;SDS011;29105;57.764;40.952;2023-04-10T12:47:25;31.85;;;2.20;;
43509;SDS011;29105;57.764;40.952;2023-04-10T12:52:35;10.85;;;1.17;;
43509;SDS011;29105;57.764;40.952;2023-04-10T12:57:38;16.15;;;0.93;;
43509;SDS011;29105;57.764;40.952;2023-04-10T13:00:05;21.50;;;2.95;;
43509;SDS011;29105;57.764;40.952;2023-04-10T13:02:31;26.73;;;2.72;;
43509;SDS011;29105;57.764;40.952;2023-04-10T13:04:57;23.27;;;2.58;;
43509;SDS011;29105;57.764;40.952;2023-04-10T13:07:23;14.68;;;0.80;;
43509;SDS011;29105;57.764;40.952;2023-04-10T13:09:49;8.60;;;1.00;;
43509;SDS011;29105;57.764;40.952;2023-04-10T13:12:15;10.60;;;1.08;;
43509;SDS011;29105;57.764;40.952;2023-04-10T13:14:40;10.13;;;1.13;;
43509;SDS011;29105;57.764;40.952;2023-04-10T13:17:07;28.95;;;1.75;;
43509;SDS011;29105;57.764;40.952;2023-04-10T13:19:32;6.43;;;0.57;;
43509;SDS011;29105;57.764;40.952;2023-04-10T13:21:58;7.93;;;1.27;;
43509;SDS011;29105;57.764;40.952;2023-04-10T13:24:25;8.60;;;1.15;;
43509;SDS011;29105;57.764;40.952;2023-04-10T13:26:51;7.15;;;0.63;;
43509;SDS011;29105;57.764;40.952;2023-04-10T13:29:16;5.10;;;0.80;;
43509;SDS011;29105;57.764;40.952;2023-04-10T13:31:42;9.85;;;1.45;;
43509;SDS011;29105;57.764;40.952;2023-04-10T13:34:07;9.73;;;1.60;;
43509;SDS011;29105;57.764;40.952;2023-04-10T13:36:33;31.50;;;3.03;;
43509;SDS011;29105;57.764;40.952;2023-04-10T13:38:58;12.05;;;1.20;;
43509;SDS011;29105;57.764;40.952;2023-04-10T13:41:24;9.45;;;1.15;;
43509;SDS011;29105;57.764;40.952;2023-04-10T13:43:50;7.53;;;0.60;;
43509;SDS011;29105;57.764;40.952;2023-04-10T13:46:15;3.65;;;0.55;;
43509;SDS011;29105;57.764;40.952;2023-04-10T13:48:41;10.60;;;0.90;;
43509;SDS011;29105;57.764;40.952;2023-04-10T13:51:07;16.65;;;1.02;;
43509;SDS011;29105;57.764;40.952;2023-04-10T13:53:33;19.27;;;1.70;;
43509;SDS011;29105;57.764;40.952;2023-04-10T13:55:59;16.63;;;1.73;;
43509;SDS011;29105;57.764;40.952;2023-04-10T13:58:24;13.15;;;0.68;;
43509;SDS011;29105;57.764;40.952;2023-04-10T14:00:52;3.42;;;0.50;;
43509;SDS011;29105;57.764;40.952;2023-04-10T14:03:18;23.60;;;2.40;;
43509;SDS011;29105;57.764;40.952;2023-04-10T14:05:44;16.23;;;1.42;;
43509;SDS011;29105;57.764;40.952;2023-04-10T14:08:09;28.30;;;2.85;;
43509;SDS011;29105;57.764;40.952;2023-04-10T14:10:38;17.80;;;1.33;;
43509;SDS011;29105;57.764;40.952;2023-04-10T14:13:04;25.40;;;1.25;;
43509;SDS011;29105;57.764;40.952;2023-04-10T14:15:31;15.05;;;1.23;;
43509;SDS011;29105;57.764;40.952;2023-04-10T14:17:59;13.38;;;1.05;;
43509;SDS011;29105;57.764;40.952;2023-04-10T14:20:25;7.40;;;1.35;;
43509;SDS011;29105;57.764;40.952;2023-04-10T14:22:51;25.40;;;1.60;;
43509;SDS011;29105;57.764;40.952;2023-04-10T14:25:16;20.30;;;0.98;;
43509;SDS011;29105;57.764;40.952;2023-04-10T14:27:42;40.58;;;3.05;;
43509;SDS011;29105;57.764;40.952;2023-04-10T14:30:08;40.53;;;3.13;;
43509;SDS011;29105;57.764;40.952;2023-04-10T14:32:34;13.75;;;1.70;;
43509;SDS011;29105;57.764;40.952;2023-04-10T14:35:00;10.10;;;1.20;;
43509;SDS011;29105;57.764;40.952;2023-04-10T14:37:25;30.90;;;3.00;;
43509;SDS011;29105;57.764;40.952;2023-04-10T14:39:51;16.95;;;1.65;;
43509;SDS011;29105;57.764;40.952;2023-04-10T14:42:17;18.73;;;1.33;;
43509;SDS011;29105;57.764;40.952;2023-04-10T14:44:42;34.75;;;2.55;;
43509;SDS011;29105;57.764;40.952;2023-04-10T14:47:08;7.03;;;1.08;;
43509;SDS011;29105;57.764;40.952;2023-04-10T14:49:34;12.77;;;1.95;;
43509;SDS011;29105;57.764;40.952;2023-04-10T14:52:00;10.25;;;0.85;;
43509;SDS011;29105;57.764;40.952;2023-04-10T14:54:25;13.70;;;1.65;;
43509;SDS011;29105;57.764;40.952;2023-04-10T14:56:51;26.42;;;2.13;;
43509;SDS011;29105;57.764;40.952;2023-04-10T14:59:17;15.15;;;1.00;;
43509;SDS011;29105;57.764;40.952;2023-04-10T15:01:42;25.02;;;2.90;;
43509;SDS011;29105;57.764;40.952;2023-04-10T15:04:08;10.50;;;0.90;;
43509;SDS011;29105;57.764;40.952;2023-04-10T15:06:33;15.90;;;2.33;;
43509;SDS011;29105;57.764;40.952;2023-04-10T15:08:59;20.98;;;1.48;;
43509;SDS011;29105;57.764;40.952;2023-04-10T15:11:25;15.02;;;1.40;;
43509;SDS011;29105;57.764;40.952;2023-04-10T15:13:51;25.02;;;2.60;;
43509;SDS011;29105;57.764;40.952;2023-04-10T15:16:16;20.45;;;1.73;;
43509;SDS011;29105;57.764;40.952;2023-04-10T15:18:42;13.85;;;2.30;;
43509;SDS011;29105;57.764;40.952;2023-04-10T15:21:11;17.45;;;1.77;;
43509;SDS011;29105;57.764;40.952;2023-04-10T15:23:36;43.47;;;2.78;;
43509;SDS011;29105;57.764;40.952;2023-04-10T15:26:02;35.08;;;3.05;;
43509;SDS011;29105;57.764;40.952;2023-04-10T15:28:27;12.15;;;1.67;;
43509;SDS011;29105;57.764;40.952;2023-04-10T15:30:53;10.38;;;1.25;;
43509;SDS011;29105;57.764;40.952;2023-04-10T15:33:19;15.55;;;1.73;;
43509;SDS011;29105;57.764;40.952;2023-04-10T15:35:49;18.85;;;2.70;;
43509;SDS011;29105;57.764;40.952;2023-04-10T15:38:15;31.15;;;4.10;;
43509;SDS011;29105;57.764;40.952;2023-04-10T15:40:40;26.33;;;3.28;;
43509;SDS011;29105;57.764;40.952;2023-04-10T15:43:06;13.20;;;1.42;;
43509;SDS011;29105;57.764;40.952;2023-04-10T15:45:31;13.40;;;1.70;;
43509;SDS011;29105;57.764;40.952;2023-04-10T15:47:57;28.08;;;2.40;;
43509;SDS011;29105;57.764;40.952;2023-04-10T15:50:25;15.43;;;2.58;;
43509;SDS011;29105;57.764;40.952;2023-04-10T15:52:51;39.40;;;5.78;;